Time,TemperatureF,DewpointF,PressureIn,WindDirection,WindDirectionDegrees,WindSpeedMPH,WindSpeedGustMPH,Humidity,HourlyPrecipIn,Conditions,Clouds,dailyrainin,SoftwareType,DateUTC
2013-01-22 00:44:00,39.2,36.2,30.12,WNW,292,0.0,0.0,89,0.00,,,0.00,WeatherDisplay:10.37,2013-01-22 08:44:00,
2013-01-22 01:14:00,39.0,36.0,30.12,WNW,292,0.0,1.0,89,0.00,,,0.00,WeatherDisplay:10.37,2013-01-22 09:14:00,
2013-01-22 01:29:00,38.8,35.8,30.11,WNW,292,0.0,1.0,89,0.00,,,0.00,WeatherDisplay:10.37,2013-01-22 09:29:00,
2013-01-22 01:44:00,38.8,35.8,30.11,WNW,292,0.0,0.0,89,0.00,,,0.00,WeatherDisplay:10.37,2013-01-22 09:44:00,
2013-01-22 01:59:00,38.1,35.4,30.11,WNW,292,0.0,1.0,90,0.00,,,0.00,WeatherDisplay:10.37,2013-01-22 09:59:00,
2013-01-22 02:14:00,38.1,35.4,30.11,WNW,292,0.0,1.0,90,0.00,,,0.00,WeatherDisplay:10.37,2013-01-22 10:14:00,
2013-01-22 02:29:00,37.9,35.2,30.11,WNW,292,0.0,1.0,90,0.00,,,0.00,WeatherDisplay:10.37,2013-01-22 10:29:00,
2013-01-22 02:44:00,37.9,35.2,30.11,WNW,292,0.0,0.0,90,0.00,,,0.00,WeatherDisplay:10.37,2013-01-22 10:44:00,
2013-01-22 03:29:00,36.8,34.4,30.09,WNW,292,0.0,0.0,91,0.00,,,0.00,WeatherDisplay:10.37,2013-01-22 11:29:00,
2013-01-22 04:14:00,36.7,34.3,30.09,WNW,292,0.0,0.0,91,0.00,,,0.00,WeatherDisplay:10.37,2013-01-22 12:14:00,
2013-01-22 04:29:00,36.3,33.9,30.10,WNW,292,0.0,0.0,91,0.00,,,0.00,WeatherDisplay:10.37,2013-01-22 12:29:00,
2013-01-22 04:44:00,36.3,33.9,30.10,WNW,292,0.0,0.0,91,0.00,,,0.00,WeatherDisplay:10.37,2013-01-22 12:44:00,
2013-01-22 04:59:00,36.0,33.9,30.10,WNW,292,0.0,0.0,92,0.00,,,0.00,WeatherDisplay:10.37,2013-01-22 12:59:00,
2013-01-22 05:14:00,36.0,33.9,30.10,WNW,292,0.0,0.0,92,0.00,,,0.00,WeatherDisplay:10.37,2013-01-22 13:14:00,
2013-01-22 05:29:00,35.7,33.6,30.10,WNW,292,0.0,0.0,92,0.00,,,0.00,WeatherDisplay:10.37,2013-01-22 13:29:00,
2013-01-22 05:44:00,35.7,33.6,30.10,WNW,292,0.0,0.0,92,0.00,,,0.00,WeatherDisplay:10.37,2013-01-22 13:44:00,
2013-01-22 05:59:00,35.4,33.3,30.11,WNW,292,0.0,0.0,92,0.00,,,0.00,WeatherDisplay:10.37,2013-01-22 13:59:00,
2013-01-22 06:14:00,35.4,33.3,30.11,WNW,292,0.0,0.0,92,0.00,,,0.00,WeatherDisplay:10.37,2013-01-22 14:14:00,
2013-01-22 06:29:00,35.5,33.7,30.11,WNW,292,0.0,0.0,93,0.00,,,0.00,WeatherDisplay:10.37,2013-01-22 14:29:00,
2013-01-22 06:44:00,35.5,33.7,30.11,WNW,292,0.0,0.0,93,0.00,,,0.00,WeatherDisplay:10.37,2013-01-22 14:44:00,
2013-01-22 06:59:00,35.7,33.9,30.11,WNW,292,0.0,0.0,93,0.00,,,0.00,WeatherDisplay:10.37,2013-01-22 14:59:00,
2013-01-22 07:14:00,35.7,33.9,30.11,WNW,292,0.0,0.0,93,0.00,,,0.00,WeatherDisplay:10.37,2013-01-22 15:14:00,
2013-01-22 07:29:00,36.4,34.8,30.11,WNW,292,0.0,0.0,94,0.00,,,0.00,WeatherDisplay:10.37,2013-01-22 15:29:00,
2013-01-22 07:44:00,36.4,34.8,30.11,WNW,292,0.0,0.0,94,0.00,,,0.00,WeatherDisplay:10.37,2013-01-22 15:44:00,
2013-01-22 07:59:00,38.5,37.2,30.11,WNW,292,0.0,0.0,95,0.00,,,0.00,WeatherDisplay:10.37,2013-01-22 15:59:00,
2013-01-22 08:14:00,38.5,37.2,30.11,WNW,292,0.0,0.0,95,0.00,,,0.00,WeatherDisplay:10.37,2013-01-22 16:14:00,
2013-01-22 08:29:00,42.9,41.6,30.12,WNW,292,0.0,0.0,95,0.00,,,0.00,WeatherDisplay:10.37,2013-01-22 16:29:00,
2013-01-22 08:44:00,42.9,41.6,30.12,WNW,292,0.0,0.0,95,0.00,,,0.00,WeatherDisplay:10.37,2013-01-22 16:44:00,
2013-01-22 08:59:00,48.5,42.3,30.11,WNW,292,0.0,4.0,79,0.00,,,0.00,WeatherDisplay:10.37,2013-01-22 16:59:00,
2013-01-22 09:14:00,48.5,42.3,30.11,WNW,292,0.0,4.0,79,0.00,,,0.00,WeatherDisplay:10.37,2013-01-22 17:14:00,
2013-01-22 09:29:00,54.1,41.4,30.11,WNW,292,0.0,4.0,62,0.00,,,0.00,WeatherDisplay:10.37,2013-01-22 17:29:00,
2013-01-22 09:44:00,54.1,41.4,30.11,WNW,292,0.0,4.0,62,0.00,,,0.00,WeatherDisplay:10.37,2013-01-22 17:44:00,
2013-01-22 09:59:00,56.7,42.1,30.12,WNW,292,0.0,4.0,58,0.00,,,0.00,WeatherDisplay:10.37,2013-01-22 17:59:00,
2013-01-22 10:14:00,56.7,42.1,30.12,WNW,292,0.0,3.0,58,0.00,,,0.00,WeatherDisplay:10.37,2013-01-22 18:14:00,
2013-01-22 10:29:00,58.9,40.3,30.12,WNW,292,0.0,3.0,50,0.00,,,0.00,WeatherDisplay:10.37,2013-01-22 18:29:00,
2013-01-22 10:44:00,58.9,40.3,30.12,WNW,292,0.0,3.0,50,0.00,,,0.00,WeatherDisplay:10.37,2013-01-22 18:44:00,
2013-01-22 10:59:00,58.6,40.5,30.11,WNW,292,0.0,4.0,51,0.00,,,0.00,WeatherDisplay:10.37,2013-01-22 18:59:00,
2013-01-22 11:14:00,58.6,40.5,30.11,WNW,292,0.0,4.0,51,0.00,,,0.00,WeatherDisplay:10.37,2013-01-22 19:14:00,
2013-01-22 11:29:00,58.6,40.0,30.10,WNW,292,0.0,4.0,50,0.00,,,0.00,WeatherDisplay:10.37,2013-01-22 19:29:00,
2013-01-22 11:44:00,58.6,40.0,30.10,WNW,292,0.0,4.0,50,0.00,,,0.00,WeatherDisplay:10.37,2013-01-22 19:44:00,
2013-01-22 12:29:00,62.5,45.1,30.06,WNW,292,0.0,5.0,53,0.00,,,0.00,WeatherDisplay:10.37,2013-01-22 20:29:00,
2013-01-22 13:44:00,61.3,42.0,30.05,SSE,158,1.0,5.0,49,0.00,,,0.00,WeatherDisplay:10.37,2013-01-22 21:44:00,
2013-01-22 14:14:00,61.4,43.1,30.04,SSE,158,0.0,1.0,51,0.00,,,0.00,WeatherDisplay:10.37,2013-01-22 22:14:00,
2013-01-22 14:29:00,62.7,42.2,30.03,SSE,158,0.0,1.0,47,0.00,,,0.00,WeatherDisplay:10.37,2013-01-22 22:29:00,
2013-01-22 14:44:00,62.7,42.2,30.03,SSE,158,0.0,1.0,47,0.00,,,0.00,WeatherDisplay:10.37,2013-01-22 22:44:00,
2013-01-22 14:59:00,62.9,44.5,30.03,SSE,158,0.0,1.0,51,0.00,,,0.00,WeatherDisplay:10.37,2013-01-22 22:59:00,
2013-01-22 15:14:00,62.9,44.5,30.03,SSE,158,0.0,1.0,51,0.00,,,0.00,WeatherDisplay:10.37,2013-01-22 23:14:00,
2013-01-22 15:29:00,59.9,43.7,30.03,SSE,158,0.0,2.0,55,0.00,,,0.00,WeatherDisplay:10.37,2013-01-22 23:29:00,
2013-01-22 15:44:00,59.9,43.7,30.03,SSE,158,0.0,2.0,55,0.00,,,0.00,WeatherDisplay:10.37,2013-01-22 23:44:00,
2013-01-22 15:59:00,58.6,44.8,30.02,SSE,158,0.0,2.0,60,0.00,,,0.00,WeatherDisplay:10.37,2013-01-22 23:59:00,
2013-01-22 16:14:00,58.6,44.8,30.02,SSE,158,0.0,1.0,60,0.00,,,0.00,WeatherDisplay:10.37,2013-01-23 00:14:00,
2013-01-22 16:29:00,57.6,44.2,30.03,SSE,158,0.0,1.0,61,0.00,,,0.00,WeatherDisplay:10.37,2013-01-23 00:29:00,
2013-01-22 16:44:00,57.6,44.2,30.03,SSE,158,0.0,1.0,61,0.00,,,0.00,WeatherDisplay:10.37,2013-01-23 00:44:00,
2013-01-22 16:59:00,56.0,44.0,30.02,SSE,158,0.0,1.0,64,0.00,,,0.00,WeatherDisplay:10.37,2013-01-23 00:59:00,
2013-01-22 17:14:00,56.0,44.0,30.02,SSE,158,0.0,0.0,64,0.00,,,0.00,WeatherDisplay:10.37,2013-01-23 01:14:00,
2013-01-22 17:29:00,54.1,43.4,30.02,SSE,158,0.0,0.0,67,0.00,,,0.00,WeatherDisplay:10.37,2013-01-23 01:29:00,
2013-01-22 17:44:00,54.1,43.4,30.02,SSE,158,0.0,0.0,67,0.00,,,0.00,WeatherDisplay:10.37,2013-01-23 01:44:00,
2013-01-22 17:59:00,53.1,42.8,30.02,SSE,158,0.0,1.0,68,0.00,,,0.00,WeatherDisplay:10.37,2013-01-23 01:59:00,
2013-01-22 18:14:00,53.1,42.8,30.02,SSE,158,0.0,1.0,68,0.00,,,0.00,WeatherDisplay:10.37,2013-01-23 02:14:00,
2013-01-22 18:29:00,52.2,43.1,30.02,SSE,158,0.0,1.0,71,0.00,,,0.00,WeatherDisplay:10.37,2013-01-23 02:29:00,
2013-01-22 18:44:00,52.2,43.1,30.02,SSE,158,0.0,1.0,71,0.00,,,0.00,WeatherDisplay:10.37,2013-01-23 02:44:00,
2013-01-22 18:59:00,51.3,44.0,30.02,SSE,158,0.0,1.0,76,0.00,,,0.00,WeatherDisplay:10.37,2013-01-23 02:59:00,
2013-01-22 19:14:00,51.3,44.0,30.02,SSE,158,0.0,0.0,76,0.00,,,0.00,WeatherDisplay:10.37,2013-01-23 03:14:00,
2013-01-22 19:29:00,50.7,43.8,30.03,SSE,158,0.0,2.0,77,0.00,,,0.00,WeatherDisplay:10.37,2013-01-23 03:29:00,
2013-01-22 19:44:00,50.7,43.8,30.03,SSE,158,0.0,2.0,77,0.00,,,0.00,WeatherDisplay:10.37,2013-01-23 03:44:00,
2013-01-22 19:59:00,50.1,43.5,30.04,SSE,158,0.0,2.0,78,0.00,,,0.00,WeatherDisplay:10.37,2013-01-23 03:59:00,
2013-01-22 20:14:00,50.1,43.5,30.04,SSE,158,0.0,0.0,78,0.00,,,0.00,WeatherDisplay:10.37,2013-01-23 04:14:00,
2013-01-22 20:29:00,49.3,43.4,30.03,SSE,158,0.0,0.0,80,0.00,,,0.00,WeatherDisplay:10.37,2013-01-23 04:29:00,
2013-01-22 20:44:00,49.3,43.4,30.03,SSE,158,0.0,0.0,80,0.00,,,0.00,WeatherDisplay:10.37,2013-01-23 04:44:00,
2013-01-22 20:59:00,48.8,43.2,30.04,SSE,158,0.0,1.0,81,0.00,,,0.00,WeatherDisplay:10.37,2013-01-23 04:59:00,
2013-01-22 21:14:00,48.8,43.2,30.04,SSE,158,0.0,1.0,81,0.00,,,0.00,WeatherDisplay:10.37,2013-01-23 05:14:00,
2013-01-22 21:29:00,48.4,43.2,30.05,SSE,158,0.0,1.0,82,0.00,,,0.00,WeatherDisplay:10.37,2013-01-23 05:29:00,
2013-01-22 21:44:00,48.4,43.2,30.05,SSE,158,0.0,0.0,82,0.00,,,0.00,WeatherDisplay:10.37,2013-01-23 05:44:00,
2013-01-22 21:59:00,47.9,42.7,30.05,SSE,158,0.0,0.0,82,0.00,,,0.00,WeatherDisplay:10.37,2013-01-23 05:59:00,
2013-01-22 22:14:00,47.9,42.7,30.05,SSE,158,0.0,0.0,82,0.00,,,0.00,WeatherDisplay:10.37,2013-01-23 06:14:00,
2013-01-22 22:29:00,47.9,43.0,30.06,SSE,158,0.0,0.0,83,0.00,,,0.00,WeatherDisplay:10.37,2013-01-23 06:29:00,
2013-01-22 22:44:00,47.9,43.0,30.06,SSE,158,0.0,0.0,83,0.00,,,0.00,WeatherDisplay:10.37,2013-01-23 06:44:00,
2013-01-22 22:59:00,48.2,43.0,30.06,SSE,158,0.0,2.0,82,0.00,,,0.00,WeatherDisplay:10.37,2013-01-23 06:59:00,
2013-01-22 23:14:00,48.2,43.0,30.06,SSE,158,0.0,2.0,82,0.00,,,0.00,WeatherDisplay:10.37,2013-01-23 07:14:00,
2013-01-22 23:29:00,48.3,43.1,30.05,SSE,158,0.0,2.0,82,0.00,,,0.00,WeatherDisplay:10.37,2013-01-23 07:29:00,
2013-01-22 23:44:00,48.3,43.1,30.05,SSE,158,0.0,1.0,82,0.00,,,0.00,WeatherDisplay:10.37,2013-01-23 07:44:00,
2013-01-22 23:59:00,48.2,43.0,30.04,SSE,158,0.0,1.0,82,0.00,,,0.00,WeatherDisplay:10.37,2013-01-23 07:59:00,